Time;durP1;ratioP1;P1;durP2;ratioP2;P2;SDS_P1;SDS_P2;PMS_P1;PMS_P2;Temp;Humidity;BMP_temperature;BMP_pressure;BME280_temperature;BME280_humidity;BME280_pressure;Samples;Min_cycle;Max_cycle;Signal;HPM_P1;HPM_P2
2021/09/12 00:00:05;;;;;;;2.50;2.25;;;;;;;;;;5066331;28;20090;-64
2021/09/12 00:02:31;;;;;;;3.05;2.25;;;;;;;;;;5066499;28;20445;-64
2021/09/12 00:04:57;;;;;;;2.83;2.30;;;;;;;;;;5066251;28;20037;-66
2021/09/12 00:07:23;;;;;;;2.80;2.20;;;;;;;;;;5066513;28;20017;-64
2021/09/12 00:09:49;;;;;;;2.58;2.38;;;;;;;;;;5066578;28;20032;-65
2021/09/12 00:12:15;;;;;;;3.45;2.20;;;;;;;;;;5070425;28;20386;-64
2021/09/12 00:14:41;;;;;;;3.35;2.22;;;;;;;;;;5068954;28;20017;-64
2021/09/12 00:17:07;;;;;;;3.83;2.20;;;;;;;;;;5070362;28;20027;-65
2021/09/12 00:19:33;;;;;;;3.05;2.72;;;;;;;;;;5070013;28;20025;-65
2021/09/12 00:21:59;;;;;;;5.30;2.50;;;;;;;;;;5069964;28;20027;-64
2021/09/12 00:24:26;;;;;;;3.83;2.67;;;;;;;;;;5070196;28;20039;-65
2021/09/12 00:26:52;;;;;;;6.20;3.15;;;;;;;;;;5069767;28;20041;-65
2021/09/12 00:29:20;;;;;;;4.07;2.72;;;;;;;;;;5069942;28;20029;-64
2021/09/12 00:31:46;;;;;;;3.25;2.60;;;;;;;;;;5069837;28;20086;-63
2021/09/12 00:34:12;;;;;;;4.18;2.80;;;;;;;;;;5069888;28;20033;-66
2021/09/12 00:36:38;;;;;;;3.65;3.30;;;;;;;;;;5069509;28;20054;-64
2021/09/12 00:39:04;;;;;;;3.75;2.80;;;;;;;;;;5069733;28;20025;-65
2021/09/12 00:41:40;;;;;;;3.45;2.92;;;;;;;;;;5069735;28;20025;-65
2021/09/12 00:44:10;;;;;;;2.60;2.40;;;;;;;;;;5070041;28;20383;-65
2021/09/12 00:46:43;;;;;;;3.25;2.72;;;;;;;;;;5069725;28;20032;-64
2021/09/12 00:49:10;;;;;;;4.43;2.80;;;;;;;;;;5069661;28;20032;-65
2021/09/12 00:51:36;;;;;;;5.22;3.25;;;;;;;;;;5069366;28;20084;-66
2021/09/12 00:54:04;;;;;;;5.22;2.72;;;;;;;;;;5069346;28;20021;-64
2021/09/12 00:56:31;;;;;;;5.00;3.55;;;;;;;;;;5069158;28;20033;-65
2021/09/12 00:58:57;;;;;;;4.63;3.00;;;;;;;;;;5069353;28;20075;-65
2021/09/12 01:01:25;;;;;;;3.17;2.80;;;;;;;;;;5069200;28;20033;-65
2021/09/12 01:03:52;;;;;;;3.45;3.15;;;;;;;;;;5069282;28;20028;-66
2021/09/12 01:06:19;;;;;;;3.17;2.80;;;;;;;;;;5069338;28;20083;-65
2021/09/12 01:08:45;;;;;;;6.78;3.00;;;;;;;;;;5069558;28;20098;-65
2021/09/12 01:11:11;;;;;;;2.97;2.60;;;;;;;;;;5069111;28;20036;-64
2021/09/12 01:13:41;;;;;;;4.80;3.10;;;;;;;;;;5068946;28;20064;-65
2021/09/12 01:16:12;;;;;;;5.95;4.18;;;;;;;;;;5068845;28;20104;-64
2021/09/12 01:18:38;;;;;;;3.67;3.10;;;;;;;;;;5068009;28;20021;-66
2021/09/12 01:21:05;;;;;;;4.13;3.00;;;;;;;;;;5069111;28;20115;-65
2021/09/12 01:23:31;;;;;;;3.13;2.70;;;;;;;;;;5068176;28;20063;-66
2021/09/12 01:25:57;;;;;;;3.42;2.83;;;;;;;;;;5068758;28;20048;-66
2021/09/12 01:28:23;;;;;;;5.60;3.10;;;;;;;;;;5068793;28;20032;-64
2021/09/12 01:30:49;;;;;;;3.70;2.97;;;;;;;;;;5068572;28;20033;-67
2021/09/12 01:33:15;;;;;;;3.83;3.20;;;;;;;;;;5068651;28;20037;-66
2021/09/12 01:35:41;;;;;;;4.35;3.33;;;;;;;;;;5068668;28;20495;-66
2021/09/12 01:38:07;;;;;;;3.50;2.60;;;;;;;;;;5068687;28;20028;-64
2021/09/12 01:40:33;;;;;;;4.15;2.80;;;;;;;;;;5068580;28;20033;-65
2021/09/12 01:43:00;;;;;;;5.47;2.72;;;;;;;;;;5068520;28;20021;-66
2021/09/12 01:45:26;;;;;;;3.67;3.33;;;;;;;;;;5068049;28;20044;-65
2021/09/12 01:47:58;;;;;;;4.35;2.90;;;;;;;;;;5068545;28;20021;-64
2021/09/12 01:50:25;;;;;;;3.40;2.75;;;;;;;;;;5068480;28;20040;-67
2021/09/12 01:52:51;;;;;;;3.85;2.72;;;;;;;;;;5068119;28;20033;-65
2021/09/12 01:55:18;;;;;;;3.20;2.70;;;;;;;;;;5068115;28;20056;-66
2021/09/12 01:57:44;;;;;;;4.00;3.00;;;;;;;;;;5068154;28;20019;-65
2021/09/12 02:00:10;;;;;;;3.70;3.03;;;;;;;;;;5068025;28;20025;-64
2021/09/12 02:02:36;;;;;;;4.68;2.72;;;;;;;;;;5068224;28;20478;-66
2021/09/12 02:05:03;;;;;;;5.90;3.13;;;;;;;;;;5067923;28;20076;-65
2021/09/12 02:07:29;;;;;;;3.90;3.42;;;;;;;;;;5068063;28;20028;-64
2021/09/12 02:09:55;;;;;;;3.80;2.92;;;;;;;;;;5068028;28;20052;-64
2021/09/12 02:12:21;;;;;;;3.53;2.72;;;;;;;;;;5067056;28;20021;-67
2021/09/12 02:14:47;;;;;;;5.38;2.90;;;;;;;;;;5067781;28;20017;-65
2021/09/12 02:17:13;;;;;;;3.95;2.85;;;;;;;;;;5067840;28;20098;-65
2021/09/12 02:19:39;;;;;;;3.45;3.00;;;;;;;;;;5067784;28;20025;-65
2021/09/12 02:22:07;;;;;;;4.95;3.38;;;;;;;;;;5067758;28;20025;-65
2021/09/12 02:24:33;;;;;;;5.50;2.80;;;;;;;;;;5067774;28;20041;-65
2021/09/12 02:26:59;;;;;;;4.13;3.00;;;;;;;;;;5067704;28;20081;-64
2021/09/12 02:29:25;;;;;;;4.50;3.33;;;;;;;;;;5067413;28;20079;-66
2021/09/12 02:31:53;;;;;;;3.85;3.05;;;;;;;;;;5067588;28;20064;-65
2021/09/12 02:34:19;;;;;;;3.88;2.92;;;;;;;;;;5067384;28;20059;-66
2021/09/12 02:36:45;;;;;;;3.97;3.05;;;;;;;;;;5067211;28;20403;-64
2021/09/12 02:39:11;;;;;;;3.70;3.17;;;;;;;;;;5067299;28;20036;-65
2021/09/12 02:41:37;;;;;;;3.75;3.10;;;;;;;;;;5067352;28;20025;-64
2021/09/12 02:44:04;;;;;;;3.63;3.08;;;;;;;;;;5067553;28;20096;-65
2021/09/12 02:46:31;;;;;;;4.55;3.20;;;;;;;;;;5067595;28;20036;-67
2021/09/12 02:48:57;;;;;;;4.22;2.95;;;;;;;;;;5067266;28;20032;-65
2021/09/12 02:51:23;;;;;;;4.50;2.90;;;;;;;;;;5067305;28;20065;-66
2021/09/12 02:53:49;;;;;;;5.63;3.28;;;;;;;;;;5067257;28;20032;-64
2021/09/12 02:56:15;;;;;;;3.70;2.75;;;;;;;;;;5067056;28;20029;-66
2021/09/12 02:58:41;;;;;;;3.38;3.08;;;;;;;;;;5067257;28;20025;-65
2021/09/12 03:01:08;;;;;;;3.90;3.03;;;;;;;;;;5067451;28;20073;-64
2021/09/12 03:03:34;;;;;;;5.45;4.15;;;;;;;;;;5067058;28;20059;-64
2021/09/12 03:06:00;;;;;;;4.95;2.95;;;;;;;;;;5066638;28;20064;-64
2021/09/12 03:08:26;;;;;;;3.83;3.30;;;;;;;;;;5066836;28;20036;-65
2021/09/12 03:10:53;;;;;;;6.03;3.10;;;;;;;;;;5066874;28;20033;-65
2021/09/12 03:13:19;;;;;;;5.00;3.40;;;;;;;;;;5067102;28;20058;-65
2021/09/12 03:15:46;;;;;;;3.92;2.63;;;;;;;;;;5066842;28;20029;-64
2021/09/12 03:18:12;;;;;;;3.75;3.25;;;;;;;;;;5065343;28;20079;-65
2021/09/12 03:20:38;;;;;;;5.22;3.05;;;;;;;;;;5066751;28;20028;-65
2021/09/12 03:23:04;;;;;;;5.68;3.72;;;;;;;;;;5066688;28;20028;-65
2021/09/12 03:25:31;;;;;;;3.75;3.00;;;;;;;;;;5066646;28;20081;-65
2021/09/12 03:27:57;;;;;;;4.15;3.30;;;;;;;;;;5066511;28;20032;-66
2021/09/12 03:30:23;;;;;;;4.07;3.20;;;;;;;;;;5066699;28;20029;-66
2021/09/12 03:32:49;;;;;;;4.07;3.22;;;;;;;;;;5066645;28;20085;-66
2021/09/12 03:35:16;;;;;;;3.85;3.40;;;;;;;;;;5066532;28;20033;-65
2021/09/12 03:37:42;;;;;;;6.63;3.35;;;;;;;;;;5066679;28;20025;-65
2021/09/12 03:40:09;;;;;;;4.28;3.10;;;;;;;;;;5066451;28;20021;-65
2021/09/12 03:42:35;;;;;;;6.18;3.80;;;;;;;;;;5066537;28;20029;-64
2021/09/12 03:45:01;;;;;;;5.43;3.45;;;;;;;;;;5066874;28;20025;-65
2021/09/12 03:47:28;;;;;;;4.72;3.30;;;;;;;;;;5070685;28;20021;-67
2021/09/12 03:49:54;;;;;;;5.50;3.55;;;;;;;;;;5069191;28;20025;-64
2021/09/12 03:52:20;;;;;;;4.00;3.25;;;;;;;;;;5070390;28;20029;-65
2021/09/12 03:54:46;;;;;;;5.30;3.30;;;;;;;;;;5070515;28;20021;-64
2021/09/12 03:57:12;;;;;;;4.55;3.20;;;;;;;;;;5070231;28;20087;-66
2021/09/12 03:59:38;;;;;;;4.22;3.13;;;;;;;;;;5070344;28;20021;-66
2021/09/12 04:02:04;;;;;;;6.05;3.80;;;;;;;;;;5070398;28;20021;-67
2021/09/12 04:04:30;;;;;;;4.03;3.20;;;;;;;;;;5070386;28;20055;-64
2021/09/12 04:06:56;;;;;;;4.68;3.13;;;;;;;;;;5070432;28;20383;-65
2021/09/12 04:09:23;;;;;;;5.78;3.58;;;;;;;;;;5070127;28;20494;-65
2021/09/12 04:11:49;;;;;;;4.20;3.60;;;;;;;;;;5070568;28;20052;-65
2021/09/12 04:14:15;;;;;;;3.95;3.55;;;;;;;;;;5070144;28;20029;-64
2021/09/12 04:16:43;;;;;;;5.80;3.70;;;;;;;;;;5069875;28;20025;-66
2021/09/12 04:19:09;;;;;;;5.57;3.22;;;;;;;;;;5069917;28;20077;-65
2021/09/12 04:21:35;;;;;;;4.80;3.05;;;;;;;;;;5069793;28;20033;-66
2021/09/12 04:24:01;;;;;;;3.80;3.10;;;;;;;;;;5069787;28;20025;-65
2021/09/12 04:26:27;;;;;;;5.10;3.45;;;;;;;;;;5069779;28;20467;-65
2021/09/12 04:28:53;;;;;;;4.85;3.40;;;;;;;;;;5069742;28;20032;-65
2021/09/12 04:31:19;;;;;;;4.97;3.55;;;;;;;;;;5069760;28;20025;-65
2021/09/12 04:33:45;;;;;;;5.28;3.75;;;;;;;;;;5069900;28;20111;-65
2021/09/12 04:36:12;;;;;;;6.35;3.83;;;;;;;;;;5069843;28;20092;-67
2021/09/12 04:38:38;;;;;;;6.22;3.83;;;;;;;;;;5069776;28;20021;-65
2021/09/12 04:41:04;;;;;;;7.00;3.60;;;;;;;;;;5069680;28;20067;-66
2021/09/12 04:43:30;;;;;;;5.07;3.55;;;;;;;;;;5069610;28;20021;-64
2021/09/12 04:45:57;;;;;;;6.40;3.60;;;;;;;;;;5069370;28;20089;-65
2021/09/12 04:48:23;;;;;;;6.35;3.65;;;;;;;;;;5068880;28;20025;-66
2021/09/12 04:50:49;;;;;;;5.97;4.38;;;;;;;;;;5069551;28;20025;-64
2021/09/12 04:53:15;;;;;;;4.10;3.03;;;;;;;;;;5069635;28;20025;-66
2021/09/12 04:55:41;;;;;;;4.93;3.53;;;;;;;;;;5069343;28;20472;-65
2021/09/12 04:58:07;;;;;;;5.75;3.85;;;;;;;;;;5069273;28;20021;-64
2021/09/12 05:00:33;;;;;;;5.35;3.60;;;;;;;;;;5069284;28;20021;-65
2021/09/12 05:02:59;;;;;;;6.07;3.67;;;;;;;;;;5069593;28;20028;-65
2021/09/12 05:05:25;;;;;;;6.82;3.83;;;;;;;;;;5068993;28;20074;-64
2021/09/12 05:07:54;;;;;;;5.15;3.92;;;;;;;;;;5069035;28;20033;-64
2021/09/12 05:10:20;;;;;;;4.85;3.80;;;;;;;;;;5069026;28;20049;-68
2021/09/12 05:12:46;;;;;;;12.10;4.35;;;;;;;;;;5069493;28;20055;-65
2021/09/12 05:15:13;;;;;;;5.85;3.80;;;;;;;;;;5069074;28;20183;-65
2021/09/12 05:17:39;;;;;;;6.13;4.47;;;;;;;;;;5069017;28;20017;-66
2021/09/12 05:20:05;;;;;;;6.60;4.05;;;;;;;;;;5069520;28;20021;-66
2021/09/12 05:22:32;;;;;;;5.78;4.18;;;;;;;;;;5068848;28;20025;-65
2021/09/12 05:24:58;;;;;;;5.25;4.03;;;;;;;;;;5069116;28;20025;-66
2021/09/12 05:27:24;;;;;;;7.18;4.45;;;;;;;;;;5069107;28;20021;-65
2021/09/12 05:29:50;;;;;;;5.75;3.95;;;;;;;;;;5068710;28;20032;-65
2021/09/12 05:32:16;;;;;;;5.10;4.22;;;;;;;;;;5067483;28;20388;-65
2021/09/12 05:34:42;;;;;;;6.03;4.07;;;;;;;;;;5068738;28;20085;-65
2021/09/12 05:37:08;;;;;;;5.65;3.50;;;;;;;;;;5068458;28;20025;-66
2021/09/12 05:39:35;;;;;;;5.82;3.83;;;;;;;;;;5068291;28;20029;-65
2021/09/12 05:42:01;;;;;;;5.88;3.72;;;;;;;;;;5068335;28;20075;-66
2021/09/12 05:44:27;;;;;;;5.93;3.67;;;;;;;;;;5068418;28;20056;-65
2021/09/12 05:46:53;;;;;;;4.55;3.38;;;;;;;;;;5068427;28;20029;-66
2021/09/12 05:49:19;;;;;;;5.70;3.95;;;;;;;;;;5068250;28;20025;-65
2021/09/12 05:51:50;;;;;;;5.15;3.47;;;;;;;;;;5068444;28;20029;-67
2021/09/12 05:54:16;;;;;;;6.05;3.65;;;;;;;;;;5068402;28;20041;-66
2021/09/12 05:56:42;;;;;;;4.75;3.60;;;;;;;;;;5068017;28;20033;-65
2021/09/12 05:59:08;;;;;;;5.45;3.40;;;;;;;;;;5068019;28;20029;-65
2021/09/12 06:01:35;;;;;;;4.85;3.42;;;;;;;;;;5068225;28;20018;-66
2021/09/12 06:04:01;;;;;;;4.85;3.78;;;;;;;;;;5067968;28;20119;-66
2021/09/12 06:06:27;;;;;;;3.92;2.90;;;;;;;;;;5068496;28;20036;-64
2021/09/12 06:08:53;;;;;;;4.43;3.00;;;;;;;;;;5067723;28;20029;-65
2021/09/12 06:11:19;;;;;;;6.25;3.88;;;;;;;;;;5067973;28;20464;-66
2021/09/12 06:13:45;;;;;;;5.03;2.90;;;;;;;;;;5067885;28;20025;-65
2021/09/12 06:16:11;;;;;;;4.78;2.65;;;;;;;;;;5066835;28;20021;-65
2021/09/12 06:18:37;;;;;;;4.85;2.58;;;;;;;;;;5067897;28;20059;-64
2021/09/12 06:21:04;;;;;;;4.53;3.03;;;;;;;;;;5068003;28;20034;-64
2021/09/12 06:23:30;;;;;;;3.40;2.67;;;;;;;;;;5067701;28;20032;-65
2021/09/12 06:25:57;;;;;;;5.53;2.40;;;;;;;;;;5067608;28;20080;-66
2021/09/12 06:28:23;;;;;;;4.90;3.33;;;;;;;;;;5067855;28;20029;-65
2021/09/12 06:30:49;;;;;;;3.25;2.72;;;;;;;;;;5067569;28;20024;-65
2021/09/12 06:33:15;;;;;;;6.00;2.58;;;;;;;;;;5067497;28;20040;-66
2021/09/12 06:35:42;;;;;;;5.22;2.97;;;;;;;;;;5067461;28;20029;-65
2021/09/12 06:38:08;;;;;;;5.13;3.08;;;;;;;;;;5067366;28;20452;-65
2021/09/12 06:40:34;;;;;;;4.18;2.80;;;;;;;;;;5067365;28;20028;-65
2021/09/12 06:43:01;;;;;;;4.32;2.70;;;;;;;;;;5067325;28;20063;-65
2021/09/12 06:45:27;;;;;;;3.58;2.75;;;;;;;;;;5067357;28;20025;-65
2021/09/12 06:47:53;;;;;;;4.25;2.90;;;;;;;;;;5066813;28;20021;-66
2021/09/12 06:50:23;;;;;;;4.00;2.80;;;;;;;;;;5067192;28;20048;-65
2021/09/12 06:52:49;;;;;;;3.22;2.45;;;;;;;;;;5067061;28;20033;-68
2021/09/12 06:55:16;;;;;;;5.07;3.28;;;;;;;;;;5067110;28;20037;-66
2021/09/12 06:57:42;;;;;;;3.50;2.67;;;;;;;;;;5067510;28;20025;-66
2021/09/12 07:00:09;;;;;;;3.45;2.80;;;;;;;;;;5067269;28;20399;-65
2021/09/12 07:02:35;;;;;;;3.65;2.58;;;;;;;;;;5066954;28;20029;-65
2021/09/12 07:05:02;;;;;;;5.15;2.50;;;;;;;;;;5066865;28;20103;-65
2021/09/12 07:07:28;;;;;;;3.53;2.40;;;;;;;;;;5066929;28;20045;-66
2021/09/12 07:09:54;;;;;;;3.15;2.70;;;;;;;;;;5066958;28;20050;-65
2021/09/12 07:12:20;;;;;;;3.67;2.72;;;;;;;;;;5068583;28;20021;-68
2021/09/12 07:14:46;;;;;;;3.13;2.22;;;;;;;;;;5068193;28;20032;-68
2021/09/12 07:17:13;;;;;;;3.03;2.72;;;;;;;;;;5067636;28;20074;-66
2021/09/12 07:19:39;;;;;;;3.78;2.72;;;;;;;;;;5066888;28;20020;-66
2021/09/12 07:22:05;;;;;;;3.85;2.90;;;;;;;;;;5067838;28;20040;-65
2021/09/12 07:24:32;;;;;;;3.80;2.72;;;;;;;;;;5066879;28;20021;-65
2021/09/12 07:26:58;;;;;;;5.35;2.85;;;;;;;;;;5067031;28;20027;-65
2021/09/12 07:29:25;;;;;;;4.78;2.75;;;;;;;;;;5065974;28;20070;-65
2021/09/12 07:31:51;;;;;;;4.68;2.65;;;;;;;;;;5066586;28;20044;-64
2021/09/12 07:34:17;;;;;;;3.20;2.63;;;;;;;;;;5067083;28;20052;-65
2021/09/12 07:36:44;;;;;;;2.75;2.38;;;;;;;;;;5066578;28;20029;-65
2021/09/12 07:39:10;;;;;;;3.70;2.63;;;;;;;;;;5066552;28;20056;-66
2021/09/12 07:41:36;;;;;;;3.17;2.47;;;;;;;;;;5066720;28;20028;-66
2021/09/12 07:44:02;;;;;;;3.13;2.67;;;;;;;;;;5066627;28;20021;-65
2021/09/12 07:46:28;;;;;;;3.08;2.30;;;;;;;;;;5066513;28;20021;-65
2021/09/12 07:48:55;;;;;;;3.33;2.50;;;;;;;;;;5066545;28;20029;-66
2021/09/12 07:51:21;;;;;;;3.47;2.28;;;;;;;;;;5066472;28;20029;-68
2021/09/12 07:53:48;;;;;;;4.45;2.50;;;;;;;;;;5066424;28;20025;-65
2021/09/12 07:56:14;;;;;;;5.50;2.40;;;;;;;;;;5066342;28;20029;-66
2021/09/12 07:58:40;;;;;;;3.65;2.20;;;;;;;;;;5066217;28;20534;-65
2021/09/12 08:01:06;;;;;;;5.03;2.33;;;;;;;;;;5066469;28;20025;-67
2021/09/12 08:03:32;;;;;;;2.67;2.40;;;;;;;;;;5066484;28;20108;-65
2021/09/12 08:05:58;;;;;;;3.30;2.20;;;;;;;;;;5066198;28;20045;-65
2021/09/12 08:08:24;;;;;;;3.88;2.22;;;;;;;;;;5066441;28;20032;-66
2021/09/12 08:10:51;;;;;;;3.78;2.60;;;;;;;;;;5066105;28;20029;-67
2021/09/12 08:13:17;;;;;;;2.97;2.40;;;;;;;;;;5066347;28;20029;-65
2021/09/12 08:15:44;;;;;;;3.33;2.78;;;;;;;;;;5066117;28;20029;-67
2021/09/12 08:18:10;;;;;;;2.70;2.45;;;;;;;;;;5066252;28;20025;-66
2021/09/12 08:20:36;;;;;;;2.92;2.53;;;;;;;;;;5066141;28;20032;-65
2021/09/12 08:23:02;;;;;;;3.85;2.72;;;;;;;;;;5066003;28;20079;-65
2021/09/12 08:25:28;;;;;;;5.40;2.80;;;;;;;;;;5066168;28;20048;-66
2021/09/12 08:27:54;;;;;;;3.42;2.97;;;;;;;;;;5066308;28;20058;-65
2021/09/12 08:30:20;;;;;;;3.33;2.67;;;;;;;;;;5066139;28;20029;-65
2021/09/12 08:32:46;;;;;;;3.50;3.20;;;;;;;;;;5069164;28;20021;-66
2021/09/12 08:35:12;;;;;;;2.90;2.55;;;;;;;;;;5070118;28;20029;-64
2021/09/12 08:37:39;;;;;;;3.50;2.78;;;;;;;;;;5069831;28;20037;-65
2021/09/12 08:40:05;;;;;;;7.45;3.53;;;;;;;;;;5069812;28;20029;-64
2021/09/12 08:42:32;;;;;;;3.95;2.97;;;;;;;;;;5069538;28;20036;-66
2021/09/12 08:44:58;;;;;;;3.25;2.78;;;;;;;;;;5069560;28;20017;-66
2021/09/12 08:47:27;;;;;;;5.88;3.30;;;;;;;;;;5069694;28;20047;-65
2021/09/12 08:49:53;;;;;;;4.75;3.10;;;;;;;;;;5069728;28;20028;-65
2021/09/12 08:52:19;;;;;;;3.60;2.80;;;;;;;;;;5069308;28;20025;-64
2021/09/12 08:54:45;;;;;;;4.03;2.95;;;;;;;;;;5069352;28;20547;-66
2021/09/12 08:57:12;;;;;;;3.25;2.70;;;;;;;;;;5069374;28;20025;-65
2021/09/12 08:59:38;;;;;;;4.45;3.38;;;;;;;;;;5069461;28;20027;-66
2021/09/12 09:02:05;;;;;;;3.58;3.28;;;;;;;;;;5069580;28;20498;-66
2021/09/12 09:04:35;;;;;;;5.13;3.15;;;;;;;;;;5069124;28;20052;-66
2021/09/12 09:07:05;;;;;;;6.68;3.50;;;;;;;;;;5069315;28;20029;-64
2021/09/12 09:09:52;;;;;;;4.97;3.53;;;;;;;;;;5069337;28;20033;-65
2021/09/12 09:12:28;;;;;;;3.65;3.17;;;;;;;;;;5069208;28;20021;-66
2021/09/12 09:14:53;;;;;;;;;;;;;;;;;;5069466;28;20047;-67
2021/09/12 09:17:20;;;;;;;5.43;3.30;;;;;;;;;;5069256;28;20017;-65
2021/09/12 09:19:55;;;;;;;5.28;3.53;;;;;;;;;;5069055;28;20036;-65
2021/09/12 09:22:29;;;;;;;4.88;3.10;;;;;;;;;;5068904;28;20423;-65
2021/09/12 09:24:59;;;;;;;4.55;3.00;;;;;;;;;;5068902;28;20041;-64
2021/09/12 09:27:25;;;;;;;3.88;3.38;;;;;;;;;;5068946;28;20499;-65
2021/09/12 09:29:57;;;;;;;5.35;3.30;;;;;;;;;;5068850;28;20025;-66
2021/09/12 09:32:29;;;;;;;4.00;3.45;;;;;;;;;;5068967;28;20032;-67
2021/09/12 09:34:59;;;;;;;3.85;2.97;;;;;;;;;;5068331;28;20464;-64
2021/09/12 09:37:25;;;;;;;5.32;3.45;;;;;;;;;;5068159;28;20036;-65
2021/09/12 09:39:52;;;;;;;3.83;2.80;;;;;;;;;;5068111;28;20025;-64
2021/09/12 09:42:37;;;;;;;5.00;3.25;;;;;;;;;;5067817;28;20049;-64
2021/09/12 09:45:08;;;;;;;4.07;3.33;;;;;;;;;;5066812;28;20017;-65
2021/09/12 09:47:35;;;;;;;3.47;2.80;;;;;;;;;;5067106;28;20579;-64
2021/09/12 09:50:05;;;;;;;3.20;2.47;;;;;;;;;;5064818;28;20017;-71
2021/09/12 09:52:34;;;;;;;3.58;3.00;;;;;;;;;;5066184;28;20101;-66
2021/09/12 09:55:00;;;;;;;4.25;3.00;;;;;;;;;;5066318;28;20051;-67
2021/09/12 09:57:27;;;;;;;4.88;2.92;;;;;;;;;;5066486;28;20025;-65
2021/09/12 09:59:53;;;;;;;3.90;2.90;;;;;;;;;;5065637;28;20060;-66
2021/09/12 10:02:20;;;;;;;4.63;2.42;;;;;;;;;;5067981;28;20029;-65
2021/09/12 10:04:46;;;;;;;5.78;3.00;;;;;;;;;;5067721;28;20057;-64
2021/09/12 10:07:12;;;;;;;4.68;2.90;;;;;;;;;;5067752;28;20021;-67
2021/09/12 10:09:39;;;;;;;3.85;2.90;;;;;;;;;;5067762;28;20056;-66
2021/09/12 10:12:09;;;;;;;3.60;3.00;;;;;;;;;;5067737;28;20074;-66
2021/09/12 10:14:39;;;;;;;3.05;2.42;;;;;;;;;;5066286;28;20027;-65
2021/09/12 10:17:11;;;;;;;4.22;2.60;;;;;;;;;;5067420;28;20040;-64
2021/09/12 10:19:38;;;;;;;4.00;2.65;;;;;;;;;;5067936;28;20080;-64
2021/09/12 10:22:22;;;;;;;3.40;2.65;;;;;;;;;;5067769;28;20091;-65
2021/09/12 10:25:09;;;;;;;3.45;2.20;;;;;;;;;;5067584;28;20071;-65
2021/09/12 10:27:58;;;;;;;2.83;2.50;;;;;;;;;;5067448;28;20085;-65
2021/09/12 10:30:26;;;;;;;3.42;2.80;;;;;;;;;;5065292;28;20037;-66
2021/09/12 10:33:08;;;;;;;3.15;2.85;;;;;;;;;;5066907;28;20056;-70
2021/09/12 10:35:48;;;;;;;4.63;2.70;;;;;;;;;;5066672;28;20040;-69
2021/09/12 10:38:23;;;;;;;7.38;3.05;;;;;;;;;;5062002;28;20025;-69
2021/09/12 10:40:49;;;;;;;3.20;2.50;;;;;;;;;;5061566;28;20028;-66
2021/09/12 10:43:24;;;;;;;5.00;2.78;;;;;;;;;;5064548;28;20029;-70
2021/09/12 10:46:02;;;;;;;5.10;2.70;;;;;;;;;;5065900;28;20032;-64
2021/09/12 10:48:29;;;;;;;3.47;2.60;;;;;;;;;;5063504;28;20060;-70
2021/09/12 10:50:56;;;;;;;4.57;2.80;;;;;;;;;;5058916;28;20516;-69
2021/09/12 10:53:41;;;;;;;3.05;2.40;;;;;;;;;;5059328;28;20391;-67
2021/09/12 10:56:07;;;;;;;3.28;2.97;;;;;;;;;;5063467;28;20124;-64
2021/09/12 10:58:33;;;;;;;4.28;2.55;;;;;;;;;;5065800;28;20083;-74
2021/09/12 11:01:01;;;;;;;4.93;2.90;;;;;;;;;;5066334;28;20025;-63
2021/09/12 11:03:27;;;;;;;4.55;2.72;;;;;;;;;;5066868;28;20024;-64
2021/09/12 11:05:54;;;;;;;6.05;3.42;;;;;;;;;;5066626;28;20068;-65
2021/09/12 11:08:20;;;;;;;5.55;2.65;;;;;;;;;;5066809;28;20028;-64
2021/09/12 11:10:49;;;;;;;10.95;7.40;;;;;;;;;;5066915;28;20091;-64
2021/09/12 11:13:23;;;;;;;8.43;4.93;;;;;;;;;;5067149;28;20052;-66
2021/09/12 11:15:49;;;;;;;6.32;4.72;;;;;;;;;;5066783;28;20100;-64
2021/09/12 11:18:15;;;;;;;2.33;1.92;;;;;;;;;;5066625;28;20025;-64
2021/09/12 11:20:46;;;;;;;3.53;2.00;;;;;;;;;;5066669;28;20032;-65
2021/09/12 11:23:26;;;;;;;6.10;3.17;;;;;;;;;;5066779;28;20022;-63
2021/09/12 11:25:55;;;;;;;6.40;2.67;;;;;;;;;;5066647;28;20029;-68
2021/09/12 11:28:23;;;;;;;4.90;4.05;;;;;;;;;;5066811;28;20029;-65
2021/09/12 11:30:49;;;;;;;3.83;2.80;;;;;;;;;;5066361;28;20054;-65
2021/09/12 11:33:15;;;;;;;3.35;2.00;;;;;;;;;;5066627;28;20085;-64
2021/09/12 11:35:56;;;;;;;3.15;1.67;;;;;;;;;;5066419;28;20025;-64
2021/09/12 11:38:26;;;;;;;3.28;1.92;;;;;;;;;;5066781;28;20052;-64
2021/09/12 11:40:55;;;;;;;2.47;2.00;;;;;;;;;;5065876;28;20080;-64
2021/09/12 11:43:21;;;;;;;4.90;2.28;;;;;;;;;;5066330;28;20050;-64
2021/09/12 11:46:02;;;;;;;6.70;2.75;;;;;;;;;;5066417;28;20040;-64
2021/09/12 11:48:28;;;;;;;5.53;2.30;;;;;;;;;;5066406;28;20032;-65
2021/09/12 11:50:55;;;;;;;6.60;2.30;;;;;;;;;;5066335;28;20029;-64
2021/09/12 11:53:25;;;;;;;5.43;2.08;;;;;;;;;;5066110;28;20029;-65
2021/09/12 11:55:51;;;;;;;3.20;1.92;;;;;;;;;;5066285;28;20087;-66
2021/09/12 11:58:18;;;;;;;1.80;1.65;;;;;;;;;;5065061;28;20025;-68
2021/09/12 12:00:47;;;;;;;2.10;1.80;;;;;;;;;;5062167;28;20021;-68
2021/09/12 12:03:15;;;;;;;2.95;1.80;;;;;;;;;;5064382;28;20033;-65
2021/09/12 12:05:45;;;;;;;1.90;1.65;;;;;;;;;;5065984;28;20159;-64
2021/09/12 12:08:20;;;;;;;1.65;1.55;;;;;;;;;;5070264;28;20032;-64
2021/09/12 12:10:46;;;;;;;;;;;;;;;;;;5070728;28;20029;-65
2021/09/12 12:13:12;;;;;;;3.10;1.80;;;;;;;;;;5069895;28;19912;-65
2021/09/12 12:15:40;;;;;;;4.97;2.00;;;;;;;;;;5069946;28;20029;-65
2021/09/12 12:18:14;;;;;;;3.33;1.90;;;;;;;;;;5069976;28;20025;-65
2021/09/12 12:20:41;;;;;;;1.90;1.80;;;;;;;;;;5069850;28;20049;-66
2021/09/12 12:23:20;;;;;;;2.67;2.03;;;;;;;;;;5069831;28;20024;-64
2021/09/12 12:25:47;;;;;;;2.45;1.70;;;;;;;;;;5069986;28;20040;-66
2021/09/12 12:28:21;;;;;;;3.05;1.95;;;;;;;;;;5070216;28;20048;-64
2021/09/12 12:31:06;;;;;;;4.32;1.88;;;;;;;;;;5069891;28;20081;-64
2021/09/12 12:33:33;;;;;;;2.17;1.98;;;;;;;;;;5070164;28;20033;-65
2021/09/12 12:36:19;;;;;;;3.35;1.90;;;;;;;;;;5069714;28;20043;-65
2021/09/12 12:38:46;;;;;;;2.63;1.80;;;;;;;;;;5068586;28;20044;-65
2021/09/12 12:41:14;;;;;;;2.50;2.30;;;;;;;;;;5069780;28;20498;-66
2021/09/12 12:43:40;;;;;;;2.58;2.03;;;;;;;;;;5069611;28;20080;-64
2021/09/12 12:46:09;;;;;;;3.28;2.20;;;;;;;;;;5069488;28;20430;-65
2021/09/12 12:48:39;;;;;;;4.57;2.20;;;;;;;;;;5069414;28;20029;-65
2021/09/12 12:51:14;;;;;;;4.57;2.10;;;;;;;;;;5069306;28;20021;-65
2021/09/12 12:53:51;;;;;;;3.92;2.10;;;;;;;;;;5069386;28;20033;-64
2021/09/12 12:56:20;;;;;;;3.20;2.13;;;;;;;;;;5069406;28;20033;-65
2021/09/12 12:58:46;;;;;;;5.38;2.88;;;;;;;;;;5069243;28;20033;-65
2021/09/12 13:01:13;;;;;;;3.35;2.30;;;;;;;;;;5067937;28;20059;-67
2021/09/12 13:03:40;;;;;;;3.65;2.65;;;;;;;;;;5069114;28;20025;-64
2021/09/12 13:06:07;;;;;;;3.88;2.53;;;;;;;;;;5069043;28;20159;-65
2021/09/12 13:08:34;;;;;;;2.50;2.30;;;;;;;;;;5069311;28;20021;-64
2021/09/12 13:11:00;;;;;;;3.03;2.72;;;;;;;;;;5069036;28;20025;-67
2021/09/12 13:13:26;;;;;;;6.35;3.15;;;;;;;;;;5069155;28;20463;-65
2021/09/12 13:15:53;;;;;;;4.05;2.63;;;;;;;;;;5069144;28;20030;-64
2021/09/12 13:18:19;;;;;;;3.03;2.45;;;;;;;;;;5067483;28;20021;-65
2021/09/12 13:20:46;;;;;;;4.72;2.70;;;;;;;;;;5067843;28;20375;-65
2021/09/12 13:23:12;;;;;;;5.10;3.88;;;;;;;;;;5068862;28;20021;-65
2021/09/12 13:25:38;;;;;;;19.85;11.75;;;;;;;;;;5069041;28;20051;-66
2021/09/12 13:28:04;;;;;;;4.45;2.88;;;;;;;;;;5068813;28;20033;-65
2021/09/12 13:30:32;;;;;;;5.07;4.10;;;;;;;;;;5068841;28;20052;-65
2021/09/12 13:32:58;;;;;;;4.85;3.83;;;;;;;;;;5068615;28;20029;-69
2021/09/12 13:35:25;;;;;;;10.35;7.90;;;;;;;;;;5068475;28;20382;-68
2021/09/12 13:37:51;;;;;;;7.13;3.72;;;;;;;;;;5068504;28;20044;-64
2021/09/12 13:40:18;;;;;;;4.63;3.25;;;;;;;;;;5067156;28;20024;-66
2021/09/12 13:42:44;;;;;;;3.60;3.13;;;;;;;;;;5068475;28;20051;-66
2021/09/12 13:45:11;;;;;;;5.85;2.88;;;;;;;;;;5068134;28;20035;-67
2021/09/12 13:47:38;;;;;;;4.00;2.95;;;;;;;;;;5068461;28;20021;-65
2021/09/12 13:50:05;;;;;;;4.82;3.28;;;;;;;;;;5068320;28;20095;-65
2021/09/12 13:52:31;;;;;;;6.50;3.97;;;;;;;;;;5068208;28;20031;-66
2021/09/12 13:54:57;;;;;;;9.02;3.58;;;;;;;;;;5068181;28;20032;-66
2021/09/12 13:57:23;;;;;;;3.58;3.15;;;;;;;;;;5068456;28;20024;-66
2021/09/12 13:59:49;;;;;;;5.97;3.20;;;;;;;;;;5068227;28;20087;-67
2021/09/12 14:02:15;;;;;;;5.97;3.08;;;;;;;;;;5067831;28;20028;-66
2021/09/12 14:04:45;;;;;;;5.63;3.53;;;;;;;;;;5067769;28;20049;-66
2021/09/12 14:07:14;;;;;;;3.92;2.72;;;;;;;;;;5068360;28;20033;-67
2021/09/12 14:09:40;;;;;;;3.80;3.20;;;;;;;;;;5068544;28;20475;-67
2021/09/12 14:12:07;;;;;;;4.65;3.08;;;;;;;;;;5068213;28;20033;-67
2021/09/12 14:14:36;;;;;;;6.93;3.28;;;;;;;;;;5067204;28;20029;-66
2021/09/12 14:17:03;;;;;;;4.75;2.67;;;;;;;;;;5068094;28;20044;-66
2021/09/12 14:19:36;;;;;;;3.45;2.40;;;;;;;;;;5068479;28;20029;-66
2021/09/12 14:22:02;;;;;;;4.97;2.90;;;;;;;;;;5068580;28;20021;-66
2021/09/12 14:24:29;;;;;;;3.20;2.42;;;;;;;;;;5068149;28;20053;-65
2021/09/12 14:26:55;;;;;;;5.68;2.92;;;;;;;;;;5066836;28;20032;-65
2021/09/12 14:29:21;;;;;;;3.50;2.78;;;;;;;;;;5067476;28;20025;-65
2021/09/12 14:31:53;;;;;;;4.95;2.85;;;;;;;;;;5067958;28;20036;-65
2021/09/12 14:34:19;;;;;;;6.63;2.92;;;;;;;;;;5068079;28;20029;-65
2021/09/12 14:36:45;;;;;;;5.78;3.10;;;;;;;;;;5067493;28;20033;-67
2021/09/12 14:39:12;;;;;;;3.00;2.53;;;;;;;;;;5067606;28;20025;-65
2021/09/12 14:41:38;;;;;;;4.85;3.10;;;;;;;;;;5066730;28;20032;-65
2021/09/12 14:44:16;;;;;;;4.28;2.83;;;;;;;;;;5066454;28;20112;-66